sensor_id;sensor_type;location;lat;lon;timestamp;pressure;altitude;pressure_sealevel;temperature;humidity
66945;BME280;53853;51.982;5.928;2023-11-19T00:02:20;100691.06;;;14.20;91.96
66945;BME280;53853;51.982;5.928;2023-11-19T00:04:50;100691.06;;;14.20;91.72
66945;BME280;53853;51.982;5.928;2023-11-19T00:07:20;100692.72;;;14.21;91.94
66945;BME280;53853;51.982;5.928;2023-11-19T00:09:50;100686.34;;;14.22;91.79
66945;BME280;53853;51.982;5.928;2023-11-19T00:12:22;100676.63;;;14.21;91.71
66945;BME280;53853;51.982;5.928;2023-11-19T00:14:54;100676.63;;;14.21;91.50
66945;BME280;53853;51.982;5.928;2023-11-19T00:17:24;100669.25;;;14.23;91.36
66945;BME280;53853;51.982;5.928;2023-11-19T00:19:54;100675.44;;;14.23;91.26
66945;BME280;53853;51.982;5.928;2023-11-19T00:22:24;100664.53;;;14.25;91.50
66945;BME280;53853;51.982;5.928;2023-11-19T00:24:53;100668.91;;;14.26;91.61
66945;BME280;53853;51.982;5.928;2023-11-19T00:27:23;100649.97;;;14.27;91.62
66945;BME280;53853;51.982;5.928;2023-11-19T00:29:56;100652.66;;;14.27;91.38
66945;BME280;53853;51.982;5.928;2023-11-19T00:32:26;100663.19;;;14.29;91.66
66945;BME280;53853;51.982;5.928;2023-11-19T00:34:56;100657.63;;;14.30;91.73
66945;BME280;53853;51.982;5.928;2023-11-19T00:37:26;100663.84;;;14.31;91.58
66945;BME280;53853;51.982;5.928;2023-11-19T00:39:56;100660.13;;;14.32;91.28
66945;BME280;53853;51.982;5.928;2023-11-19T00:42:25;100647.41;;;14.34;91.67
66945;BME280;53853;51.982;5.928;2023-11-19T00:44:58;100660.63;;;14.36;91.23
66945;BME280;53853;51.982;5.928;2023-11-19T00:47:28;100652.75;;;14.34;91.33
66945;BME280;53853;51.982;5.928;2023-11-19T00:49:58;100664.13;;;14.36;91.14
66945;BME280;53853;51.982;5.928;2023-11-19T00:52:27;100658.75;;;14.36;90.76
66945;BME280;53853;51.982;5.928;2023-11-19T00:54:58;100656.09;;;14.36;90.55
66945;BME280;53853;51.982;5.928;2023-11-19T00:57:28;100648.88;;;14.37;90.63
66945;BME280;53853;51.982;5.928;2023-11-19T01:00:02;100637.31;;;14.36;90.43
66945;BME280;53853;51.982;5.928;2023-11-19T01:02:36;100635.28;;;14.38;90.73
66945;BME280;53853;51.982;5.928;2023-11-19T01:05:09;100627.91;;;14.40;90.23
66945;BME280;53853;51.982;5.928;2023-11-19T01:07:40;100627.06;;;14.40;90.11
66945;BME280;53853;51.982;5.928;2023-11-19T01:10:10;100623.56;;;14.39;90.00
66945;BME280;53853;51.982;5.928;2023-11-19T01:12:40;100631.59;;;14.39;89.81
66945;BME280;53853;51.982;5.928;2023-11-19T01:15:12;100625.22;;;14.40;90.02
66945;BME280;53853;51.982;5.928;2023-11-19T01:17:45;100624.19;;;14.41;88.93
66945;BME280;53853;51.982;5.928;2023-11-19T01:20:15;100632.41;;;14.40;89.29
66945;BME280;53853;51.982;5.928;2023-11-19T01:22:45;100641.31;;;14.40;88.82
66945;BME280;53853;51.982;5.928;2023-11-19T01:25:15;100626.25;;;14.39;88.48
66945;BME280;53853;51.982;5.928;2023-11-19T01:27:45;100632.59;;;14.38;88.66
66945;BME280;53853;51.982;5.928;2023-11-19T01:30:19;100642.31;;;14.39;89.06
66945;BME280;53853;51.982;5.928;2023-11-19T01:32:50;100643.16;;;14.40;88.84
66945;BME280;53853;51.982;5.928;2023-11-19T01:35:20;100645.00;;;14.39;88.54
66945;BME280;53853;51.982;5.928;2023-11-19T01:37:50;100632.59;;;14.38;88.71
66945;BME280;53853;51.982;5.928;2023-11-19T01:40:21;100624.38;;;14.40;88.47
66945;BME280;53853;51.982;5.928;2023-11-19T01:42:51;100623.72;;;14.38;88.63
66945;BME280;53853;51.982;5.928;2023-11-19T01:45:30;100624.56;;;14.38;88.82
66945;BME280;53853;51.982;5.928;2023-11-19T01:48:02;100610.16;;;14.39;88.81
66945;BME280;53853;51.982;5.928;2023-11-19T01:50:32;100613.47;;;14.41;88.88
66945;BME280;53853;51.982;5.928;2023-11-19T01:53:02;100619.69;;;14.42;88.46
66945;BME280;53853;51.982;5.928;2023-11-19T01:55:32;100608.13;;;14.41;88.64
66945;BME280;53853;51.982;5.928;2023-11-19T01:58:02;100608.97;;;14.42;88.46
66945;BME280;53853;51.982;5.928;2023-11-19T02:00:35;100614.16;;;14.43;88.03
66945;BME280;53853;51.982;5.928;2023-11-19T02:03:06;100617.00;;;14.42;87.63
66945;BME280;53853;51.982;5.928;2023-11-19T02:05:37;100618.00;;;14.41;86.77
66945;BME280;53853;51.982;5.928;2023-11-19T02:08:08;100614.88;;;14.37;87.29
66945;BME280;53853;51.982;5.928;2023-11-19T02:10:40;100607.84;;;14.36;87.53
66945;BME280;53853;51.982;5.928;2023-11-19T02:13:11;100605.97;;;14.37;87.72
66945;BME280;53853;51.982;5.928;2023-11-19T02:15:44;100600.78;;;14.35;87.09
66945;BME280;53853;51.982;5.928;2023-11-19T02:18:21;100599.97;;;14.35;86.79
66945;BME280;53853;51.982;5.928;2023-11-19T02:20:54;100599.31;;;14.32;86.72
66945;BME280;53853;51.982;5.928;2023-11-19T02:23:26;100594.16;;;14.31;86.26
66945;BME280;53853;51.982;5.928;2023-11-19T02:26:13;100595.97;;;14.30;86.54
66945;BME280;53853;51.982;5.928;2023-11-19T02:28:47;100597.66;;;14.31;86.60
66945;BME280;53853;51.982;5.928;2023-11-19T02:31:16;100601.31;;;14.30;86.55
66945;BME280;53853;51.982;5.928;2023-11-19T02:33:47;100590.81;;;14.29;86.65
66945;BME280;53853;51.982;5.928;2023-11-19T02:36:16;100598.00;;;14.28;85.97
66945;BME280;53853;51.982;5.928;2023-11-19T02:38:48;100606.03;;;14.28;85.33
66945;BME280;53853;51.982;5.928;2023-11-19T02:41:18;100615.31;;;14.26;85.56
66945;BME280;53853;51.982;5.928;2023-11-19T02:43:50;100605.59;;;14.25;85.59
66945;BME280;53853;51.982;5.928;2023-11-19T02:46:20;100605.75;;;14.23;85.87
66945;BME280;53853;51.982;5.928;2023-11-19T02:48:50;100601.22;;;14.24;85.60
66945;BME280;53853;51.982;5.928;2023-11-19T02:51:20;100609.44;;;14.22;85.21
66945;BME280;53853;51.982;5.928;2023-11-19T02:53:50;100613.16;;;14.21;85.57
66945;BME280;53853;51.982;5.928;2023-11-19T02:56:19;100602.44;;;14.21;85.33
66945;BME280;53853;51.982;5.928;2023-11-19T02:58:55;100607.28;;;14.18;85.12
66945;BME280;53853;51.982;5.928;2023-11-19T03:01:25;100599.25;;;14.18;85.09
66945;BME280;53853;51.982;5.928;2023-11-19T03:04:00;100611.84;;;14.17;84.51
66945;BME280;53853;51.982;5.928;2023-11-19T03:06:30;100606.84;;;14.14;84.54
66945;BME280;53853;51.982;5.928;2023-11-19T03:09:00;100602.47;;;14.13;84.05
66945;BME280;53853;51.982;5.928;2023-11-19T03:11:37;100592.97;;;14.10;84.25
66945;BME280;53853;51.982;5.928;2023-11-19T03:14:09;100596.81;;;14.08;83.17
66945;BME280;53853;51.982;5.928;2023-11-19T03:16:39;100610.75;;;14.03;83.33
66945;BME280;53853;51.982;5.928;2023-11-19T03:19:09;100610.09;;;14.01;84.12
66945;BME280;53853;51.982;5.928;2023-11-19T03:21:39;100612.97;;;14.00;84.00
66945;BME280;53853;51.982;5.928;2023-11-19T03:24:08;100602.59;;;13.97;83.58
66945;BME280;53853;51.982;5.928;2023-11-19T03:26:38;100611.00;;;13.93;83.71
66945;BME280;53853;51.982;5.928;2023-11-19T03:29:12;100611.16;;;13.92;83.82
66945;BME280;53853;51.982;5.928;2023-11-19T03:31:42;100610.69;;;13.88;83.56
66945;BME280;53853;51.982;5.928;2023-11-19T03:34:12;100615.59;;;13.85;83.42
66945;BME280;53853;51.982;5.928;2023-11-19T03:36:42;100615.75;;;13.83;83.83
66945;BME280;53853;51.982;5.928;2023-11-19T03:39:12;100611.41;;;13.82;82.71
66945;BME280;53853;51.982;5.928;2023-11-19T03:41:42;100604.72;;;13.78;83.33
66945;BME280;53853;51.982;5.928;2023-11-19T03:44:17;100610.25;;;13.76;83.57
66945;BME280;53853;51.982;5.928;2023-11-19T03:46:48;100613.28;;;13.73;83.14
66945;BME280;53853;51.982;5.928;2023-11-19T03:49:17;100604.13;;;13.68;83.01
66945;BME280;53853;51.982;5.928;2023-11-19T03:51:47;100612.84;;;13.62;83.43
66945;BME280;53853;51.982;5.928;2023-11-19T03:54:18;100599.16;;;13.56;84.11
66945;BME280;53853;51.982;5.928;2023-11-19T03:56:49;100600.69;;;13.51;83.75
66945;BME280;53853;51.982;5.928;2023-11-19T03:59:22;100599.72;;;13.44;83.94
66945;BME280;53853;51.982;5.928;2023-11-19T04:01:52;100598.56;;;13.38;83.67
66945;BME280;53853;51.982;5.928;2023-11-19T04:04:23;100598.09;;;13.26;84.07
66945;BME280;53853;51.982;5.928;2023-11-19T04:06:53;100607.47;;;13.22;84.04
66945;BME280;53853;51.982;5.928;2023-11-19T04:09:23;100602.16;;;13.14;84.18
66945;BME280;53853;51.982;5.928;2023-11-19T04:11:53;100607.19;;;13.09;84.57
66945;BME280;53853;51.982;5.928;2023-11-19T04:14:25;100607.03;;;13.02;84.92
66945;BME280;53853;51.982;5.928;2023-11-19T04:16:56;100594.19;;;12.97;85.02
66945;BME280;53853;51.982;5.928;2023-11-19T04:19:25;100614.25;;;12.93;85.19
66945;BME280;53853;51.982;5.928;2023-11-19T04:21:55;100612.56;;;12.92;84.79
66945;BME280;53853;51.982;5.928;2023-11-19T04:24:25;100607.38;;;12.91;84.42
66945;BME280;53853;51.982;5.928;2023-11-19T04:26:55;100614.94;;;12.87;84.24
66945;BME280;53853;51.982;5.928;2023-11-19T04:29:27;100627.97;;;12.82;83.94
66945;BME280;53853;51.982;5.928;2023-11-19T04:31:57;100609.78;;;12.77;84.05
66945;BME280;53853;51.982;5.928;2023-11-19T04:34:28;100616.28;;;12.75;84.22
66945;BME280;53853;51.982;5.928;2023-11-19T04:36:57;100618.47;;;12.71;84.50
66945;BME280;53853;51.982;5.928;2023-11-19T04:39:31;100624.81;;;12.70;84.56
66945;BME280;53853;51.982;5.928;2023-11-19T04:42:01;100623.31;;;12.67;83.84
66945;BME280;53853;51.982;5.928;2023-11-19T04:44:34;100618.50;;;12.63;84.18
66945;BME280;53853;51.982;5.928;2023-11-19T04:47:04;100620.31;;;12.62;83.89
66945;BME280;53853;51.982;5.928;2023-11-19T04:49:34;100630.34;;;12.60;83.74
66945;BME280;53853;51.982;5.928;2023-11-19T04:52:04;100612.81;;;12.58;83.51
66945;BME280;53853;51.982;5.928;2023-11-19T04:54:34;100623.16;;;12.53;83.86
66945;BME280;53853;51.982;5.928;2023-11-19T04:57:04;100631.34;;;12.51;83.91
66945;BME280;53853;51.982;5.928;2023-11-19T04:59:37;100624.34;;;12.50;83.78
66945;BME280;53853;51.982;5.928;2023-11-19T05:02:08;100627.19;;;12.48;83.26
66945;BME280;53853;51.982;5.928;2023-11-19T05:04:43;100625.66;;;12.46;83.35
66945;BME280;53853;51.982;5.928;2023-11-19T05:07:13;100626.66;;;12.45;83.12
66945;BME280;53853;51.982;5.928;2023-11-19T05:09:43;100620.16;;;12.39;83.09
66945;BME280;53853;51.982;5.928;2023-11-19T05:12:13;100621.31;;;12.37;83.56
66945;BME280;53853;51.982;5.928;2023-11-19T05:14:45;100613.31;;;12.37;83.58
66945;BME280;53853;51.982;5.928;2023-11-19T05:17:17;100629.34;;;12.37;83.66
66945;BME280;53853;51.982;5.928;2023-11-19T05:19:47;100635.72;;;12.36;84.06
66945;BME280;53853;51.982;5.928;2023-11-19T05:22:17;100629.34;;;12.37;84.19
66945;BME280;53853;51.982;5.928;2023-11-19T05:24:47;100630.19;;;12.37;84.39
66945;BME280;53853;51.982;5.928;2023-11-19T05:27:17;100633.53;;;12.39;84.45
66945;BME280;53853;51.982;5.928;2023-11-19T05:29:49;100634.19;;;12.41;84.61
66945;BME280;53853;51.982;5.928;2023-11-19T05:32:19;100635.38;;;12.47;83.68
66945;BME280;53853;51.982;5.928;2023-11-19T05:34:49;100633.34;;;12.49;83.80
66945;BME280;53853;51.982;5.928;2023-11-19T05:37:19;100631.34;;;12.51;83.83
66945;BME280;53853;51.982;5.928;2023-11-19T05:39:49;100635.38;;;12.55;83.52
66945;BME280;53853;51.982;5.928;2023-11-19T05:42:19;100629.84;;;12.57;83.08
66945;BME280;53853;51.982;5.928;2023-11-19T05:44:51;100636.50;;;12.61;82.77
66945;BME280;53853;51.982;5.928;2023-11-19T05:47:21;100640.03;;;12.61;82.71
66945;BME280;53853;51.982;5.928;2023-11-19T05:49:51;100636.34;;;12.62;82.67
66945;BME280;53853;51.982;5.928;2023-11-19T05:52:21;100632.84;;;12.62;82.50
66945;BME280;53853;51.982;5.928;2023-11-19T05:54:51;100635.34;;;12.63;82.53
66945;BME280;53853;51.982;5.928;2023-11-19T05:57:21;100622.81;;;12.64;82.40
66945;BME280;53853;51.982;5.928;2023-11-19T05:59:54;100641.34;;;12.65;82.11
66945;BME280;53853;51.982;5.928;2023-11-19T06:02:25;100636.19;;;12.64;82.30
66945;BME280;53853;51.982;5.928;2023-11-19T06:04:56;100637.03;;;12.64;82.06
66945;BME280;53853;51.982;5.928;2023-11-19T06:07:26;100623.50;;;12.66;81.59
66945;BME280;53853;51.982;5.928;2023-11-19T06:09:56;100638.69;;;12.65;81.39
66945;BME280;53853;51.982;5.928;2023-11-19T06:12:26;100646.53;;;12.67;81.11
66945;BME280;53853;51.982;5.928;2023-11-19T06:15:04;100641.19;;;12.67;81.91
66945;BME280;53853;51.982;5.928;2023-11-19T06:17:35;100650.06;;;12.67;81.89
66945;BME280;53853;51.982;5.928;2023-11-19T06:20:06;100642.03;;;12.67;81.84
66945;BME280;53853;51.982;5.928;2023-11-19T06:22:38;100644.03;;;12.65;81.58
66945;BME280;53853;51.982;5.928;2023-11-19T06:25:09;100653.06;;;12.64;82.03
66945;BME280;53853;51.982;5.928;2023-11-19T06:27:41;100653.06;;;12.64;82.25
66945;BME280;53853;51.982;5.928;2023-11-19T06:30:14;100654.88;;;12.64;82.05
66945;BME280;53853;51.982;5.928;2023-11-19T06:32:44;100649.53;;;12.64;82.60
66945;BME280;53853;51.982;5.928;2023-11-19T06:35:14;100649.72;;;12.62;82.60
66945;BME280;53853;51.982;5.928;2023-11-19T06:37:44;100648.72;;;12.63;81.09
66945;BME280;53853;51.982;5.928;2023-11-19T06:40:14;100649.88;;;12.61;81.12
66945;BME280;53853;51.982;5.928;2023-11-19T06:42:43;100644.72;;;12.59;81.23
66945;BME280;53853;51.982;5.928;2023-11-19T06:45:16;100649.38;;;12.57;82.02
66945;BME280;53853;51.982;5.928;2023-11-19T06:47:46;100648.41;;;12.58;82.63
66945;BME280;53853;51.982;5.928;2023-11-19T06:50:16;100671.47;;;12.59;82.57
66945;BME280;53853;51.982;5.928;2023-11-19T06:52:46;100664.28;;;12.60;82.22
66945;BME280;53853;51.982;5.928;2023-11-19T06:55:16;100661.44;;;12.61;82.05
66945;BME280;53853;51.982;5.928;2023-11-19T06:57:46;100668.59;;;12.61;82.01
66945;BME280;53853;51.982;5.928;2023-11-19T07:00:19;100663.06;;;12.62;81.45
66945;BME280;53853;51.982;5.928;2023-11-19T07:02:49;100667.75;;;12.60;81.28
66945;BME280;53853;51.982;5.928;2023-11-19T07:05:19;100677.47;;;12.61;81.68
66945;BME280;53853;51.982;5.928;2023-11-19T07:07:50;100672.94;;;12.62;80.93
66945;BME280;53853;51.982;5.928;2023-11-19T07:10:20;100674.78;;;12.61;81.18
66945;BME280;53853;51.982;5.928;2023-11-19T07:12:50;100685.31;;;12.63;81.43
66945;BME280;53853;51.982;5.928;2023-11-19T07:15:23;100692.47;;;12.62;81.15
66945;BME280;53853;51.982;5.928;2023-11-19T07:17:53;100684.47;;;12.62;81.47
66945;BME280;53853;51.982;5.928;2023-11-19T07:20:24;100694.16;;;12.63;81.86
66945;BME280;53853;51.982;5.928;2023-11-19T07:22:54;100685.81;;;12.66;81.73
66945;BME280;53853;51.982;5.928;2023-11-19T07:25:24;100691.97;;;12.67;81.92
66945;BME280;53853;51.982;5.928;2023-11-19T07:27:54;100696.19;;;12.69;82.26
66945;BME280;53853;51.982;5.928;2023-11-19T07:30:26;100698.69;;;12.71;82.11
66945;BME280;53853;51.982;5.928;2023-11-19T07:32:56;100701.34;;;12.71;80.65
66945;BME280;53853;51.982;5.928;2023-11-19T07:35:26;100695.50;;;12.67;80.86
66945;BME280;53853;51.982;5.928;2023-11-19T07:37:57;100702.03;;;12.65;80.51
66945;BME280;53853;51.982;5.928;2023-11-19T07:40:27;100707.38;;;12.65;80.65
66945;BME280;53853;51.982;5.928;2023-11-19T07:42:57;100718.22;;;12.63;80.54
66945;BME280;53853;51.982;5.928;2023-11-19T07:45:29;100718.88;;;12.65;80.19
66945;BME280;53853;51.982;5.928;2023-11-19T07:47:59;100718.06;;;12.65;80.29
66945;BME280;53853;51.982;5.928;2023-11-19T07:50:29;100713.53;;;12.65;80.19
66945;BME280;53853;51.982;5.928;2023-11-19T07:52:59;100714.22;;;12.67;80.38
66945;BME280;53853;51.982;5.928;2023-11-19T07:55:31;100716.75;;;12.69;80.84
66945;BME280;53853;51.982;5.928;2023-11-19T07:58:01;100719.91;;;12.73;81.01
66945;BME280;53853;51.982;5.928;2023-11-19T08:00:33;100710.56;;;12.77;81.25
66945;BME280;53853;51.982;5.928;2023-11-19T08:03:04;100714.56;;;12.81;81.05
66945;BME280;53853;51.982;5.928;2023-11-19T08:05:34;100698.00;;;12.85;80.86
66945;BME280;53853;51.982;5.928;2023-11-19T08:08:04;100710.88;;;12.90;80.51
66945;BME280;53853;51.982;5.928;2023-11-19T08:10:34;100709.56;;;12.94;79.84
66945;BME280;53853;51.982;5.928;2023-11-19T08:13:04;100708.84;;;13.00;80.07
66945;BME280;53853;51.982;5.928;2023-11-19T08:15:36;100715.22;;;13.08;79.51
66945;BME280;53853;51.982;5.928;2023-11-19T08:18:07;100712.19;;;13.11;78.84
66945;BME280;53853;51.982;5.928;2023-11-19T08:20:36;100717.38;;;13.12;78.48
66945;BME280;53853;51.982;5.928;2023-11-19T08:23:06;100717.22;;;13.14;78.40
66945;BME280;53853;51.982;5.928;2023-11-19T08:25:36;100722.22;;;13.17;79.08
66945;BME280;53853;51.982;5.928;2023-11-19T08:28:06;100723.53;;;13.21;79.70
66945;BME280;53853;51.982;5.928;2023-11-19T08:30:38;100712.50;;;13.24;79.39
66945;BME280;53853;51.982;5.928;2023-11-19T08:33:08;100720.19;;;13.27;79.48
66945;BME280;53853;51.982;5.928;2023-11-19T08:35:38;100717.16;;;13.30;79.01
66945;BME280;53853;51.982;5.928;2023-11-19T08:38:08;100714.19;;;13.33;77.78
66945;BME280;53853;51.982;5.928;2023-11-19T08:40:38;100727.41;;;13.35;77.35
66945;BME280;53853;51.982;5.928;2023-11-19T08:43:07;100719.38;;;13.35;77.15
66945;BME280;53853;51.982;5.928;2023-11-19T08:45:40;100717.00;;;13.32;77.48
66945;BME280;53853;51.982;5.928;2023-11-19T08:48:10;100710.16;;;13.29;76.58
66945;BME280;53853;51.982;5.928;2023-11-19T08:50:40;100716.50;;;13.28;77.02
66945;BME280;53853;51.982;5.928;2023-11-19T08:53:10;100716.50;;;13.28;76.87
66945;BME280;53853;51.982;5.928;2023-11-19T08:55:39;100719.19;;;13.28;76.49
66945;BME280;53853;51.982;5.928;2023-11-19T08:58:09;100727.03;;;13.30;77.48
66945;BME280;53853;51.982;5.928;2023-11-19T09:00:41;100730.25;;;13.33;76.88
66945;BME280;53853;51.982;5.928;2023-11-19T09:03:11;100729.72;;;13.38;77.16
66945;BME280;53853;51.982;5.928;2023-11-19T09:05:41;100721.19;;;13.43;77.70
66945;BME280;53853;51.982;5.928;2023-11-19T09:08:11;100718.81;;;13.48;77.47
66945;BME280;53853;51.982;5.928;2023-11-19T09:10:41;100723.84;;;13.51;77.20
66945;BME280;53853;51.982;5.928;2023-11-19T09:13:11;100720.81;;;13.54;76.98
66945;BME280;53853;51.982;5.928;2023-11-19T09:15:43;100719.66;;;13.56;76.90
66945;BME280;53853;51.982;5.928;2023-11-19T09:18:13;100722.16;;;13.58;76.54
66945;BME280;53853;51.982;5.928;2023-11-19T09:20:43;100731.84;;;13.59;75.68
66945;BME280;53853;51.982;5.928;2023-11-19T09:23:12;100715.78;;;13.59;75.25
66945;BME280;53853;51.982;5.928;2023-11-19T09:25:42;100717.44;;;13.60;75.22
66945;BME280;53853;51.982;5.928;2023-11-19T09:28:12;100722.63;;;13.62;75.27
66945;BME280;53853;51.982;5.928;2023-11-19T09:30:45;100726.13;;;13.62;75.20
66945;BME280;53853;51.982;5.928;2023-11-19T09:33:15;100724.16;;;13.64;75.58
66945;BME280;53853;51.982;5.928;2023-11-19T09:35:44;100732.00;;;13.66;75.40
66945;BME280;53853;51.982;5.928;2023-11-19T09:38:16;100723.81;;;13.67;75.15
66945;BME280;53853;51.982;5.928;2023-11-19T09:40:46;100722.78;;;13.68;75.30
66945;BME280;53853;51.982;5.928;2023-11-19T09:43:16;100724.28;;;13.71;74.37
66945;BME280;53853;51.982;5.928;2023-11-19T09:45:50;100721.44;;;13.72;74.78
66945;BME280;53853;51.982;5.928;2023-11-19T09:48:20;100723.75;;;13.75;74.42
66945;BME280;53853;51.982;5.928;2023-11-19T09:50:51;100727.09;;;13.77;73.91
66945;BME280;53853;51.982;5.928;2023-11-19T09:53:21;100718.59;;;13.74;73.99
66945;BME280;53853;51.982;5.928;2023-11-19T09:55:51;100716.72;;;13.74;75.71
66945;BME280;53853;51.982;5.928;2023-11-19T09:58:23;100700.31;;;13.77;76.00
66945;BME280;53853;51.982;5.928;2023-11-19T10:00:55;100711.34;;;13.83;75.84
66945;BME280;53853;51.982;5.928;2023-11-19T10:03:26;100714.81;;;13.91;75.99
66945;BME280;53853;51.982;5.928;2023-11-19T10:05:56;100717.44;;;14.00;74.46
66945;BME280;53853;51.982;5.928;2023-11-19T10:08:26;100714.25;;;14.04;75.21
66945;BME280;53853;51.982;5.928;2023-11-19T10:10:56;100707.72;;;14.07;74.37
66945;BME280;53853;51.982;5.928;2023-11-19T10:13:27;100713.72;;;14.09;74.16
66945;BME280;53853;51.982;5.928;2023-11-19T10:16:00;100713.38;;;14.12;74.55
66945;BME280;53853;51.982;5.928;2023-11-19T10:18:33;100699.13;;;14.11;74.05
66945;BME280;53853;51.982;5.928;2023-11-19T10:21:05;100700.81;;;14.12;74.50
66945;BME280;53853;51.982;5.928;2023-11-19T10:23:51;100710.34;;;14.15;72.55
66945;BME280;53853;51.982;5.928;2023-11-19T10:26:24;100702.47;;;14.13;73.54
66945;BME280;53853;51.982;5.928;2023-11-19T10:28:54;100702.47;;;14.13;73.81
66945;BME280;53853;51.982;5.928;2023-11-19T10:31:27;100702.47;;;14.13;73.20
66945;BME280;53853;51.982;5.928;2023-11-19T10:33:57;100692.94;;;14.11;72.73
66945;BME280;53853;51.982;5.928;2023-11-19T10:36:38;100699.31;;;14.10;72.72
66945;BME280;53853;51.982;5.928;2023-11-19T10:39:09;100695.78;;;14.09;72.88
66945;BME280;53853;51.982;5.928;2023-11-19T10:41:39;100697.66;;;14.09;72.08
66945;BME280;53853;51.982;5.928;2023-11-19T10:44:09;100703.19;;;14.07;72.47
66945;BME280;53853;51.982;5.928;2023-11-19T10:46:42;100693.75;;;14.11;73.29
66945;BME280;53853;51.982;5.928;2023-11-19T10:49:13;100691.88;;;14.20;74.18
66945;BME280;53853;51.982;5.928;2023-11-19T10:51:45;100685.00;;;14.26;73.48
66945;BME280;53853;51.982;5.928;2023-11-19T10:54:19;100679.91;;;14.31;72.75
66945;BME280;53853;51.982;5.928;2023-11-19T10:56:54;100670.13;;;14.38;73.51
66945;BME280;53853;51.982;5.928;2023-11-19T10:59:24;100674.78;;;14.44;71.34
66945;BME280;53853;51.982;5.928;2023-11-19T11:01:57;100674.06;;;14.50;69.61
66945;BME280;53853;51.982;5.928;2023-11-19T11:04:31;100676.41;;;14.54;70.19
66945;BME280;53853;51.982;5.928;2023-11-19T11:07:03;100671.03;;;14.54;71.41
66945;BME280;53853;51.982;5.928;2023-11-19T11:09:33;100681.75;;;14.54;69.87
66945;BME280;53853;51.982;5.928;2023-11-19T11:12:04;100674.34;;;14.56;70.87
66945;BME280;53853;51.982;5.928;2023-11-19T11:14:38;100685.56;;;14.59;70.01
66945;BME280;53853;51.982;5.928;2023-11-19T11:17:13;100663.22;;;14.67;68.82
66945;BME280;53853;51.982;5.928;2023-11-19T11:19:46;100669.09;;;14.71;68.58
66945;BME280;53853;51.982;5.928;2023-11-19T11:22:18;100677.59;;;14.74;68.74
66945;BME280;53853;51.982;5.928;2023-11-19T11:25:11;100666.50;;;14.77;67.75
66945;BME280;53853;51.982;5.928;2023-11-19T11:28:13;100667.81;;;14.81;68.01
66945;BME280;53853;51.982;5.928;2023-11-19T11:31:02;100662.09;;;14.84;68.48
66945;BME280;53853;51.982;5.928;2023-11-19T11:34:01;100679.47;;;14.89;67.70
66945;BME280;53853;51.982;5.928;2023-11-19T11:36:41;100661.41;;;14.82;66.97
66945;BME280;53853;51.982;5.928;2023-11-19T11:39:14;100667.31;;;14.78;67.57
66945;BME280;53853;51.982;5.928;2023-11-19T11:41:45;100668.00;;;14.80;69.11
66945;BME280;53853;51.982;5.928;2023-11-19T11:44:15;100666.16;;;14.80;67.48
66945;BME280;53853;51.982;5.928;2023-11-19T11:46:55;100661.97;;;14.78;67.88
66945;BME280;53853;51.982;5.928;2023-11-19T11:49:31;100659.63;;;14.75;67.66
66945;BME280;53853;51.982;5.928;2023-11-19T11:52:04;100654.28;;;14.75;69.27
66945;BME280;53853;51.982;5.928;2023-11-19T11:54:35;100645.03;;;14.77;68.96
66945;BME280;53853;51.982;5.928;2023-11-19T11:57:08;100640.13;;;14.81;68.76
66945;BME280;53853;51.982;5.928;2023-11-19T11:59:45;100656.72;;;14.84;68.82
66945;BME280;53853;51.982;5.928;2023-11-19T12:02:17;100645.13;;;14.84;68.18
66945;BME280;53853;51.982;5.928;2023-11-19T12:04:51;100647.53;;;14.79;67.56
66945;BME280;53853;51.982;5.928;2023-11-19T12:07:22;100644.94;;;14.71;67.30
66945;BME280;53853;51.982;5.928;2023-11-19T12:09:54;100639.00;;;14.60;67.56
66945;BME280;53853;51.982;5.928;2023-11-19T12:12:35;100648.88;;;14.60;68.59
66945;BME280;53853;51.982;5.928;2023-11-19T12:15:08;100636.63;;;14.65;69.12
66945;BME280;53853;51.982;5.928;2023-11-19T12:17:43;100640.22;;;14.73;67.55
66945;BME280;53853;51.982;5.928;2023-11-19T12:20:23;100642.72;;;14.74;66.92
66945;BME280;53853;51.982;5.928;2023-11-19T12:22:53;100640.88;;;14.75;67.26
66945;BME280;53853;51.982;5.928;2023-11-19T12:25:23;100645.03;;;14.77;66.99
66945;BME280;53853;51.982;5.928;2023-11-19T12:27:53;100643.00;;;14.79;67.60
66945;BME280;53853;51.982;5.928;2023-11-19T12:30:24;100644.59;;;14.89;68.13
66945;BME280;53853;51.982;5.928;2023-11-19T12:32:55;100645.22;;;14.91;67.01
66945;BME280;53853;51.982;5.928;2023-11-19T12:35:28;100643.22;;;14.93;66.75
66945;BME280;53853;51.982;5.928;2023-11-19T12:37:58;100648.22;;;14.96;65.97
66945;BME280;53853;51.982;5.928;2023-11-19T12:40:28;100634.13;;;14.94;66.51
66945;BME280;53853;51.982;5.928;2023-11-19T12:42:58;100639.13;;;14.97;66.28
66945;BME280;53853;51.982;5.928;2023-11-19T12:45:35;100639.50;;;14.94;65.95
66945;BME280;53853;51.982;5.928;2023-11-19T12:48:06;100648.22;;;14.96;67.01
66945;BME280;53853;51.982;5.928;2023-11-19T12:50:56;100657.19;;;15.03;65.86
66945;BME280;53853;51.982;5.928;2023-11-19T12:53:28;100638.41;;;15.03;65.02
66945;BME280;53853;51.982;5.928;2023-11-19T12:56:08;100635.72;;;15.03;65.56
66945;BME280;53853;51.982;5.928;2023-11-19T12:58:38;100645.28;;;15.06;65.17
66945;BME280;53853;51.982;5.928;2023-11-19T13:01:09;100657.38;;;15.01;64.52
66945;BME280;53853;51.982;5.928;2023-11-19T13:03:39;100642.84;;;14.96;65.20
66945;BME280;53853;51.982;5.928;2023-11-19T13:06:13;100654.22;;;14.98;65.97
66945;BME280;53853;51.982;5.928;2023-11-19T13:08:43;100641.28;;;15.01;65.36
66945;BME280;53853;51.982;5.928;2023-11-19T13:11:27;100651.38;;;14.99;65.83
66945;BME280;53853;51.982;5.928;2023-11-19T13:14:00;100657.38;;;15.01;66.22